createdAt,value
2023-03-17T00:00:59.372Z,5.17
2023-03-17T00:04:02.411Z,4.77
2023-03-17T00:07:06.686Z,5.20
2023-03-17T00:10:17.373Z,3.80
2023-03-17T00:13:20.852Z,5.03
2023-03-17T00:16:27.093Z,4.70
2023-03-17T00:19:32.253Z,5.03
2023-03-17T00:22:35.102Z,5.37
2023-03-17T00:25:43.307Z,4.87
2023-03-17T00:28:46.516Z,5.30
2023-03-17T00:31:50.733Z,4.73
2023-03-17T00:34:53.614Z,6.17
2023-03-17T00:37:58.008Z,5.00
2023-03-17T00:41:02.236Z,4.77
2023-03-17T00:44:05.544Z,5.97
2023-03-17T00:47:10.465Z,5.23
2023-03-17T00:50:19.707Z,4.33
2023-03-17T00:53:22.985Z,5.07
2023-03-17T00:56:27.967Z,4.20
2023-03-17T00:59:37.922Z,5.23
2023-03-17T01:02:41.182Z,4.87
2023-03-17T01:05:44.384Z,5.17
2023-03-17T01:08:47.419Z,5.23
2023-03-17T01:11:52.232Z,5.83
2023-03-17T01:14:55.065Z,5.00
2023-03-17T01:17:58.463Z,5.50
2023-03-17T01:21:01.342Z,4.93
2023-03-17T01:24:04.388Z,4.63
2023-03-17T01:27:08.917Z,5.47
2023-03-17T01:30:24.397Z,5.10
2023-03-17T01:33:27.420Z,4.93
2023-03-17T01:36:30.272Z,5.10
2023-03-17T01:39:33.480Z,4.20
2023-03-17T01:42:38.070Z,4.57
2023-03-17T01:46:27.451Z,4.50
2023-03-17T01:49:33.542Z,4.80
2023-03-17T01:52:39.668Z,4.87
2023-03-17T01:55:44.852Z,5.23
2023-03-17T01:58:53.386Z,5.43
2023-03-17T02:02:02.423Z,4.73
2023-03-17T02:05:08.405Z,4.73
2023-03-17T02:08:13.630Z,5.03
2023-03-17T02:11:17.018Z,4.63
2023-03-17T02:14:21.428Z,4.67
2023-03-17T02:17:26.352Z,4.90
2023-03-17T02:21:02.896Z,5.53
2023-03-17T02:24:12.151Z,4.60
2023-03-17T02:27:18.754Z,4.77
2023-03-17T02:30:23.607Z,5.37
2023-03-17T02:33:27.665Z,5.50
2023-03-17T02:36:30.579Z,5.37
2023-03-17T02:39:35.303Z,5.33
2023-03-17T02:42:39.339Z,5.37
2023-03-17T02:45:42.363Z,5.03
2023-03-17T02:48:46.156Z,4.97
2023-03-17T02:51:49.010Z,4.97
2023-03-17T02:54:53.254Z,5.20
2023-03-17T02:57:56.083Z,4.60
2023-03-17T03:00:58.956Z,5.40
2023-03-17T03:04:02.240Z,4.80
2023-03-17T03:07:05.317Z,6.10
2023-03-17T03:10:11.105Z,5.87
2023-03-17T03:13:13.948Z,6.20
2023-03-17T03:16:17.080Z,4.90
2023-03-17T03:19:20.021Z,4.83
2023-03-17T03:22:22.891Z,5.43
2023-03-17T03:25:27.034Z,4.90
2023-03-17T03:28:29.880Z,5.63
2023-03-17T03:31:32.734Z,6.67
2023-03-17T03:34:35.743Z,4.87
2023-03-17T03:37:38.624Z,5.87
2023-03-17T03:40:42.823Z,5.50
2023-03-17T03:43:45.680Z,5.67
2023-03-17T03:46:48.571Z,5.57
2023-03-17T03:49:51.404Z,6.23
2023-03-17T03:52:54.226Z,5.93
2023-03-17T03:55:58.398Z,5.67
2023-03-17T03:59:01.288Z,5.43
2023-03-17T04:02:04.163Z,6.17
2023-03-17T04:05:09.210Z,5.67
2023-03-17T04:08:12.149Z,5.47
2023-03-17T04:11:16.655Z,5.37
2023-03-17T04:14:19.914Z,5.50
2023-03-17T04:17:22.805Z,5.57
2023-03-17T04:20:25.649Z,5.07
2023-03-17T04:23:28.881Z,5.10
2023-03-17T04:26:33.437Z,5.27
2023-03-17T04:29:36.316Z,5.10
2023-03-17T04:32:39.262Z,4.77
2023-03-17T04:35:42.141Z,6.20
2023-03-17T04:38:45.004Z,5.03
2023-03-17T04:41:49.202Z,4.13
2023-03-17T04:44:52.042Z,4.73
2023-03-17T04:47:54.890Z,4.63
2023-03-17T04:50:57.800Z,4.43
2023-03-17T04:54:01.459Z,4.67
2023-03-17T04:57:06.007Z,4.67
2023-03-17T05:00:11.726Z,4.60
2023-03-17T05:03:26.415Z,4.17
2023-03-17T05:06:30.754Z,3.77
2023-03-17T05:09:33.615Z,4.70
2023-03-17T05:12:37.844Z,4.90
2023-03-17T05:15:41.592Z,4.43
2023-03-17T05:18:44.773Z,5.13
2023-03-17T05:21:47.668Z,4.47
2023-03-17T05:24:50.528Z,5.27
2023-03-17T05:27:54.700Z,4.63
2023-03-17T05:30:57.755Z,4.20
2023-03-17T05:34:01.114Z,5.27
2023-03-17T05:37:04.003Z,4.93
2023-03-17T05:40:08.320Z,5.20
2023-03-17T05:43:12.699Z,5.87
2023-03-17T05:46:16.158Z,5.63
2023-03-17T05:49:20.378Z,5.63
2023-03-17T05:52:23.228Z,5.90
2023-03-17T05:55:26.153Z,5.83
2023-03-17T05:58:30.740Z,4.83
2023-03-17T06:01:33.633Z,5.00
2023-03-17T06:04:36.836Z,4.13
2023-03-17T06:07:51.649Z,4.53
2023-03-17T06:10:56.711Z,4.57
2023-03-17T06:14:01.760Z,5.27
2023-03-17T06:17:05.180Z,4.97
2023-03-17T06:20:09.233Z,4.90
2023-03-17T06:23:12.064Z,4.67
2023-03-17T06:26:14.889Z,4.83
2023-03-17T06:29:19.124Z,5.30
2023-03-17T06:32:22.056Z,4.57
2023-03-17T06:35:25.195Z,5.17
2023-03-17T06:38:28.142Z,5.30
2023-03-17T06:41:31.368Z,5.03
2023-03-17T06:44:36.292Z,4.63
2023-03-17T06:47:39.783Z,5.03
2023-03-17T06:50:42.674Z,5.37
2023-03-17T06:53:45.728Z,4.53
2023-03-17T06:56:48.629Z,5.10
2023-03-17T06:59:52.810Z,4.83
2023-03-17T07:02:55.649Z,4.30
2023-03-17T07:05:59.744Z,4.70
2023-03-17T07:09:03.650Z,5.90
2023-03-17T07:12:07.279Z,5.20
2023-03-17T07:15:12.806Z,4.30
2023-03-17T07:18:16.928Z,4.50
2023-03-17T07:21:19.821Z,4.33
2023-03-17T07:24:22.779Z,4.10
2023-03-17T07:27:26.740Z,3.50
2023-03-17T07:30:30.956Z,4.20
2023-03-17T07:33:33.844Z,3.73
2023-03-17T07:36:37.491Z,3.63
2023-03-17T07:39:40.932Z,3.80
2023-03-17T07:42:43.758Z,3.27
2023-03-17T07:45:48.006Z,3.80
2023-03-17T07:48:51.584Z,3.60
2023-03-17T07:51:54.436Z,3.40
2023-03-17T07:54:58.195Z,3.50
2023-03-17T07:58:01.286Z,3.77
2023-03-17T08:01:06.071Z,4.27
2023-03-17T08:04:10.836Z,4.00
2023-03-17T08:07:14.647Z,3.77
2023-03-17T08:10:18.199Z,3.73
2023-03-17T08:13:21.556Z,3.77
2023-03-17T08:16:26.158Z,3.67
2023-03-17T08:19:29.087Z,3.43
2023-03-17T08:22:32.714Z,4.27
2023-03-17T08:25:35.561Z,3.53
2023-03-17T08:28:38.578Z,3.53
2023-03-17T08:31:45.896Z,3.70
2023-03-17T08:34:49.419Z,3.13
2023-03-17T08:37:55.727Z,3.13
2023-03-17T08:41:02.227Z,3.07
2023-03-17T08:44:05.401Z,3.57
2023-03-17T08:47:09.638Z,3.60
2023-03-17T08:50:18.134Z,3.67
2023-03-17T08:53:22.002Z,3.60
2023-03-17T08:56:24.858Z,3.27
2023-03-17T08:59:27.689Z,3.10
2023-03-17T09:02:31.891Z,3.20
2023-03-17T09:05:38.124Z,3.43
2023-03-17T09:08:44.839Z,3.37
2023-03-17T09:11:47.903Z,3.40
2023-03-17T09:14:51.215Z,3.70
2023-03-17T09:17:55.519Z,3.67
2023-03-17T09:20:58.932Z,3.53
2023-03-17T09:24:02.728Z,3.43
2023-03-17T09:27:06.208Z,3.70
2023-03-17T09:30:10.865Z,2.97
2023-03-17T09:33:15.773Z,2.87
2023-03-17T09:36:19.131Z,2.63
2023-03-17T09:39:22.927Z,3.00
2023-03-17T09:42:39.174Z,3.63
2023-03-17T09:45:43.871Z,3.27
2023-03-17T09:49:00.220Z,3.23
2023-03-17T09:52:03.505Z,2.23
2023-03-17T09:55:09.290Z,2.90
2023-03-17T09:58:13.220Z,2.50
2023-03-17T10:01:16.246Z,2.70
2023-03-17T10:04:20.626Z,2.63
2023-03-17T10:07:29.065Z,3.40
2023-03-17T10:10:41.544Z,3.37
2023-03-17T10:13:54.826Z,3.23
2023-03-17T10:17:02.850Z,1.90
2023-03-17T10:20:11.362Z,2.13
2023-03-17T10:23:18.291Z,2.73
2023-03-17T10:26:30.725Z,2.33
2023-03-17T10:29:33.629Z,2.10
2023-03-17T10:32:40.278Z,2.43
2023-03-17T10:35:44.946Z,2.20
2023-03-17T10:38:54.143Z,1.83
2023-03-17T10:41:59.746Z,1.87
2023-03-17T10:45:12.356Z,2.63
2023-03-17T10:48:19.019Z,1.60
2023-03-17T10:51:30.934Z,1.63
2023-03-17T10:54:36.753Z,1.80
2023-03-17T10:57:40.488Z,1.43
2023-03-17T11:00:55.350Z,1.40
2023-03-17T11:04:00.416Z,1.80
2023-03-17T11:07:11.067Z,1.77
2023-03-17T11:10:21.416Z,2.43
2023-03-17T11:13:30.470Z,2.07
2023-03-17T11:16:36.544Z,2.27
2023-03-17T11:19:50.141Z,2.30
2023-03-17T11:23:02.225Z,1.57
2023-03-17T11:26:16.960Z,1.60
2023-03-17T11:29:33.105Z,1.67
2023-03-17T11:32:40.840Z,1.33
2023-03-17T11:35:51.491Z,1.53
2023-03-17T11:39:04.203Z,1.40
2023-03-17T11:42:13.411Z,1.30
2023-03-17T11:45:24.002Z,0.90
2023-03-17T11:48:39.312Z,1.47
2023-03-17T11:51:53.432Z,1.63
2023-03-17T11:55:09.440Z,2.17
2023-03-17T11:58:20.364Z,1.57
2023-03-17T12:01:29.248Z,1.43
2023-03-17T12:04:36.100Z,1.70
2023-03-17T12:07:44.572Z,1.97
2023-03-17T12:10:51.741Z,1.43
2023-03-17T12:14:00.195Z,1.80
2023-03-17T12:17:09.625Z,1.60
2023-03-17T12:20:18.358Z,2.13
2023-03-17T12:23:30.054Z,1.93
2023-03-17T12:26:39.646Z,1.70
2023-03-17T12:29:47.390Z,1.77
2023-03-17T12:32:58.446Z,1.50
2023-03-17T12:36:02.568Z,1.67
2023-03-17T12:39:10.222Z,1.70
2023-03-17T12:42:43.417Z,1.97
2023-03-17T12:45:59.478Z,1.70
2023-03-17T12:49:27.153Z,2.37
2023-03-17T12:52:44.269Z,2.00
2023-03-17T12:55:50.199Z,1.80
2023-03-17T12:59:00.026Z,1.90
2023-03-17T13:02:30.585Z,2.65
2023-03-17T13:05:34.027Z,1.48
2023-03-17T13:08:41.015Z,2.00
2023-03-17T13:11:50.021Z,1.30
2023-03-17T13:14:55.127Z,1.93
2023-03-17T13:18:24.485Z,1.55
2023-03-17T13:21:27.774Z,1.67
2023-03-17T13:24:46.994Z,1.48
2023-03-17T13:27:50.095Z,2.22
2023-03-17T13:31:09.992Z,2.10
2023-03-17T13:34:16.343Z,2.40
2023-03-17T13:37:26.436Z,2.08
2023-03-17T13:40:38.270Z,2.22
2023-03-17T13:44:06.672Z,2.80
2023-03-17T13:47:33.438Z,2.23
2023-03-17T13:50:40.080Z,2.38
2023-03-17T13:53:46.373Z,2.83
2023-03-17T13:56:53.829Z,3.33
2023-03-17T14:00:05.608Z,2.22
2023-03-17T14:03:14.503Z,2.67
2023-03-17T14:06:20.397Z,2.60
2023-03-17T14:09:34.223Z,2.73
2023-03-17T14:12:41.061Z,2.93
2023-03-17T14:15:50.404Z,2.92
2023-03-17T14:18:59.899Z,2.63
2023-03-17T14:22:19.618Z,3.10
2023-03-17T14:25:24.813Z,2.90
2023-03-17T14:28:29.867Z,2.90
2023-03-17T14:31:33.006Z,2.70
2023-03-17T14:34:43.951Z,2.38
2023-03-17T14:37:46.951Z,3.10
2023-03-17T14:40:51.103Z,2.30
2023-03-17T14:43:58.463Z,2.47
2023-03-17T14:47:06.599Z,3.07
2023-03-17T14:50:18.050Z,2.77
2023-03-17T14:53:23.985Z,2.60
2023-03-17T14:56:32.941Z,2.27
2023-03-17T14:59:37.831Z,3.37
2023-03-17T15:02:42.441Z,2.87
2023-03-17T15:05:47.355Z,2.90
2023-03-17T15:08:50.848Z,2.90
2023-03-17T15:11:56.700Z,3.07
2023-03-17T15:15:03.451Z,3.23
2023-03-17T15:18:12.005Z,3.17
2023-03-17T15:21:38.661Z,3.10
2023-03-17T15:24:44.079Z,2.93
2023-03-17T15:27:48.373Z,3.27
2023-03-17T15:30:52.811Z,2.97
2023-03-17T15:33:56.207Z,2.97
2023-03-17T15:37:00.427Z,3.30
2023-03-17T15:40:05.502Z,2.87
2023-03-17T15:43:08.546Z,3.00
2023-03-17T15:46:22.467Z,2.70
2023-03-17T15:49:26.966Z,2.80
2023-03-17T15:52:31.276Z,3.00
2023-03-17T15:55:34.108Z,3.07
2023-03-17T15:58:36.943Z,3.50
2023-03-17T16:01:40.791Z,3.30
2023-03-17T16:04:43.696Z,3.53
2023-03-17T16:07:48.212Z,3.77
2023-03-17T16:10:52.008Z,3.00
2023-03-17T16:13:54.893Z,3.17
2023-03-17T16:16:57.877Z,2.97
2023-03-17T16:20:00.928Z,2.80
2023-03-17T16:23:09.699Z,2.80
2023-03-17T16:26:16.116Z,2.40
2023-03-17T16:29:21.333Z,3.77
2023-03-17T16:32:24.694Z,4.80
2023-03-17T16:35:27.832Z,5.93
2023-03-17T16:38:33.697Z,4.80
2023-03-17T16:41:36.611Z,4.00
2023-03-17T16:44:39.495Z,3.10
2023-03-17T16:47:42.394Z,3.23
2023-03-17T16:50:45.485Z,3.10
2023-03-17T16:53:49.780Z,2.90
2023-03-17T16:56:52.695Z,3.23
2023-03-17T16:59:55.548Z,3.63
2023-03-17T17:02:59.802Z,4.07
2023-03-17T17:06:02.645Z,3.20
2023-03-17T17:09:06.889Z,3.77
2023-03-17T17:12:10.522Z,4.33
2023-03-17T17:15:15.299Z,3.50
2023-03-17T17:18:21.667Z,3.83
2023-03-17T17:21:26.138Z,3.37
2023-03-17T17:24:31.150Z,5.10
2023-03-17T17:27:33.989Z,3.67
2023-03-17T17:30:37.108Z,5.07
2023-03-17T17:33:40.535Z,4.57
2023-03-17T17:36:43.649Z,5.00
2023-03-17T17:39:47.804Z,4.87
2023-03-17T17:42:50.852Z,4.90
2023-03-17T17:45:54.154Z,4.33
2023-03-17T17:48:57.139Z,4.30
2023-03-17T17:52:00.010Z,3.47
2023-03-17T17:55:04.603Z,2.87
2023-03-17T17:58:07.502Z,2.90
2023-03-17T18:01:11.805Z,3.57
2023-03-17T18:04:14.728Z,3.63
2023-03-17T18:07:17.576Z,3.30
2023-03-17T18:10:24.035Z,3.77
2023-03-17T18:13:27.062Z,3.43
2023-03-17T18:16:29.976Z,3.57
2023-03-17T18:19:32.796Z,4.30
2023-03-17T18:22:36.013Z,3.80
2023-03-17T18:25:41.145Z,4.10
2023-03-17T18:28:44.722Z,4.43
2023-03-17T18:31:49.736Z,4.43
2023-03-17T18:34:53.012Z,4.60
2023-03-17T18:37:57.663Z,3.70
2023-03-17T18:41:03.090Z,5.57
2023-03-17T18:44:10.474Z,5.13
2023-03-17T18:47:15.233Z,4.13
2023-03-17T18:50:18.631Z,4.57
2023-03-17T18:53:22.195Z,4.20
2023-03-17T18:56:29.155Z,5.00
2023-03-17T18:59:32.096Z,4.50
2023-03-17T19:02:35.169Z,4.53
2023-03-17T19:05:39.509Z,6.27
2023-03-17T19:08:42.915Z,5.47
2023-03-17T19:11:47.093Z,5.33
2023-03-17T19:14:50.476Z,5.67
2023-03-17T19:17:53.486Z,5.97
2023-03-17T19:20:57.125Z,6.07
2023-03-17T19:24:01.894Z,6.17
2023-03-17T19:27:06.812Z,5.87
2023-03-17T19:30:10.914Z,6.33
2023-03-17T19:33:14.316Z,6.93
2023-03-17T19:36:17.221Z,7.40
2023-03-17T19:39:20.142Z,7.50
2023-03-17T19:42:24.530Z,7.60
2023-03-17T19:45:27.425Z,8.80
2023-03-17T19:48:30.385Z,8.47
2023-03-17T19:51:33.938Z,9.67
2023-03-17T19:54:37.740Z,10.27
2023-03-17T19:57:42.085Z,12.33
2023-03-17T20:00:44.941Z,11.13
2023-03-17T20:03:47.764Z,12.57
2023-03-17T20:06:55.045Z,12.87
2023-03-17T20:09:57.891Z,10.87
2023-03-17T20:13:02.651Z,10.57
2023-03-17T20:16:07.027Z,10.90
2023-03-17T20:19:09.915Z,9.47
2023-03-17T20:22:12.862Z,11.27
2023-03-17T20:25:15.687Z,10.77
2023-03-17T20:28:21.413Z,11.80
2023-03-17T20:31:24.375Z,11.90
2023-03-17T20:34:27.252Z,10.93
2023-03-17T20:37:30.069Z,11.60
2023-03-17T20:40:33.139Z,10.13
2023-03-17T20:43:38.264Z,12.60
2023-03-17T20:46:41.290Z,12.13
2023-03-17T20:49:44.143Z,12.57
2023-03-17T20:52:47.771Z,13.23
2023-03-17T20:55:50.919Z,14.50
2023-03-17T20:58:56.388Z,13.23
2023-03-17T21:01:59.300Z,11.87
2023-03-17T21:05:02.169Z,12.67
2023-03-17T21:08:05.521Z,12.50
2023-03-17T21:11:09.757Z,13.30
2023-03-17T21:14:14.944Z,12.73
2023-03-17T21:17:18.260Z,12.80
2023-03-17T21:20:22.161Z,13.03
2023-03-17T21:23:25.096Z,12.50
2023-03-17T21:26:27.912Z,14.27
2023-03-17T21:29:34.012Z,17.03
2023-03-17T21:32:37.149Z,14.50
2023-03-17T21:35:40.063Z,14.17
2023-03-17T21:38:43.577Z,15.10
2023-03-17T21:41:46.868Z,12.97
2023-03-17T21:44:52.045Z,11.17
2023-03-17T21:47:55.050Z,10.97
2023-03-17T21:50:57.909Z,12.70
2023-03-17T21:54:00.801Z,11.70
2023-03-17T21:57:03.686Z,11.43
2023-03-17T22:00:09.631Z,13.63
2023-03-17T22:03:12.533Z,11.93
2023-03-17T22:06:16.225Z,12.37
2023-03-17T22:09:19.416Z,12.83
2023-03-17T22:12:24.013Z,13.87
2023-03-17T22:15:29.121Z,11.70
2023-03-17T22:18:32.551Z,11.37
2023-03-17T22:21:35.784Z,10.37
2023-03-17T22:24:39.225Z,12.07
2023-03-17T22:27:42.055Z,12.83
2023-03-17T22:30:46.584Z,12.63
2023-03-17T22:33:52.327Z,12.90
2023-03-17T22:36:55.258Z,11.37
2023-03-17T22:40:02.407Z,11.60
2023-03-17T22:43:05.415Z,10.90
2023-03-17T22:46:09.998Z,11.13
2023-03-17T22:49:12.860Z,11.03
2023-03-17T22:52:15.795Z,11.23
2023-03-17T22:55:18.816Z,10.33
2023-03-17T22:58:21.650Z,11.10
2023-03-17T23:01:25.973Z,10.17
2023-03-17T23:04:28.917Z,10.07
2023-03-17T23:07:35.599Z,10.77
2023-03-17T23:10:44.497Z,9.50
2023-03-17T23:13:48.197Z,10.33
2023-03-17T23:16:52.362Z,10.47
2023-03-17T23:19:55.334Z,8.73
2023-03-17T23:22:58.832Z,8.70
2023-03-17T23:26:01.754Z,9.57
2023-03-17T23:29:05.277Z,9.93
2023-03-17T23:32:12.129Z,9.90
2023-03-17T23:35:15.353Z,9.20
2023-03-17T23:38:19.371Z,10.07
2023-03-17T23:41:22.619Z,9.70
2023-03-17T23:44:25.439Z,10.27
2023-03-17T23:47:30.012Z,9.53
2023-03-17T23:50:33.660Z,9.40
2023-03-17T23:53:36.743Z,8.47
2023-03-17T23:56:39.589Z,9.10
2023-03-17T23:59:43.227Z,9.57
